Cerkezmusellim, Turkey
Current Conditions -  °F | °C
As of 10:20 PM on Monday 26 Jan 2015 (Local Time) from LTBU Reporting Station
Broken Clouds Broken Clouds  
Wind Chill: 33°   Ceiling: 2500
Heat Index: 41°   Visibility: 4mi
Dew Point: 39°   Wind: 15mph
Humidity: 93%   Direction: 40°NE
Pressure: 30.12"   Gusts: NA
Location:  41.28°N, 27.03°E
Report Text: LTBU 262020Z 04013KT 6000 SCT005 BKN025 BKN090 05/04 Q1020
Loading
Personal Weather Stations






























Interactive Weather Map New forecast layout! Learn more

10-Day Weather Forecast

Advertisements
Track Severe Weather on mobile